sensor_id;sensor_type;location;lat;lon;timestamp;temperature;humidity
25973;DHT22;13765;51.166;4.466;2022-09-11T00:01:18;16.20;99.90
25973;DHT22;13765;51.166;4.466;2022-09-11T00:03:45;16.30;99.90
25973;DHT22;13765;51.166;4.466;2022-09-11T00:06:14;16.30;99.90
25973;DHT22;13765;51.166;4.466;2022-09-11T00:08:43;16.30;99.90
25973;DHT22;13765;51.166;4.466;2022-09-11T00:11:14;16.30;99.90
25973;DHT22;13765;51.166;4.466;2022-09-11T00:13:46;16.30;99.90
25973;DHT22;13765;51.166;4.466;2022-09-11T00:16:36;16.20;99.90
25973;DHT22;13765;51.166;4.466;2022-09-11T00:19:16;16.20;99.90
25973;DHT22;13765;51.166;4.466;2022-09-11T00:21:42;16.20;99.90
25973;DHT22;13765;51.166;4.466;2022-09-11T00:24:12;16.20;99.90
25973;DHT22;13765;51.166;4.466;2022-09-11T00:26:43;16.20;99.90
25973;DHT22;13765;51.166;4.466;2022-09-11T00:29:11;16.20;99.90
25973;DHT22;13765;51.166;4.466;2022-09-11T00:31:40;16.10;99.90
25973;DHT22;13765;51.166;4.466;2022-09-11T00:34:06;16.10;99.90
25973;DHT22;13765;51.166;4.466;2022-09-11T00:36:32;16.10;99.90
25973;DHT22;13765;51.166;4.466;2022-09-11T00:38:59;16.10;99.90
25973;DHT22;13765;51.166;4.466;2022-09-11T00:41:31;16.20;99.90
25973;DHT22;13765;51.166;4.466;2022-09-11T00:44:05;16.10;99.90
25973;DHT22;13765;51.166;4.466;2022-09-11T00:47:04;16.10;99.90
25973;DHT22;13765;51.166;4.466;2022-09-11T00:52:07;16.00;99.90
25973;DHT22;13765;51.166;4.466;2022-09-11T00:54:48;16.00;99.90
25973;DHT22;13765;51.166;4.466;2022-09-11T00:57:17;16.00;99.90
25973;DHT22;13765;51.166;4.466;2022-09-11T00:59:45;16.00;99.90
25973;DHT22;13765;51.166;4.466;2022-09-11T01:02:18;16.00;99.90
25973;DHT22;13765;51.166;4.466;2022-09-11T01:04:44;16.00;99.90
25973;DHT22;13765;51.166;4.466;2022-09-11T01:07:11;15.90;99.90
25973;DHT22;13765;51.166;4.466;2022-09-11T01:09:41;15.90;99.90
25973;DHT22;13765;51.166;4.466;2022-09-11T01:15:02;15.80;99.90
25973;DHT22;13765;51.166;4.466;2022-09-11T01:17:52;15.80;99.90
25973;DHT22;13765;51.166;4.466;2022-09-11T01:25:53;15.80;99.90
25973;DHT22;13765;51.166;4.466;2022-09-11T01:28:28;15.80;99.90
25973;DHT22;13765;51.166;4.466;2022-09-11T01:31:07;15.80;99.90
25973;DHT22;13765;51.166;4.466;2022-09-11T01:33:45;15.80;99.90
25973;DHT22;13765;51.166;4.466;2022-09-11T01:36:43;15.80;99.90
25973;DHT22;13765;51.166;4.466;2022-09-11T01:39:11;15.80;99.90
25973;DHT22;13765;51.166;4.466;2022-09-11T01:41:52;15.80;99.90
25973;DHT22;13765;51.166;4.466;2022-09-11T01:44:25;15.70;99.90
25973;DHT22;13765;51.166;4.466;2022-09-11T01:46:52;15.70;99.90
25973;DHT22;13765;51.166;4.466;2022-09-11T01:49:24;15.70;99.90
25973;DHT22;13765;51.166;4.466;2022-09-11T01:51:56;15.70;99.90
25973;DHT22;13765;51.166;4.466;2022-09-11T01:54:29;15.60;99.90
25973;DHT22;13765;51.166;4.466;2022-09-11T01:57:01;15.70;99.90
25973;DHT22;13765;51.166;4.466;2022-09-11T01:59:37;15.60;99.90
25973;DHT22;13765;51.166;4.466;2022-09-11T02:02:11;15.60;99.90
25973;DHT22;13765;51.166;4.466;2022-09-11T02:04:48;15.60;99.90
25973;DHT22;13765;51.166;4.466;2022-09-11T02:07:22;15.50;99.90
25973;DHT22;13765;51.166;4.466;2022-09-11T02:09:53;15.50;99.90
25973;DHT22;13765;51.166;4.466;2022-09-11T02:12:24;15.40;99.90
25973;DHT22;13765;51.166;4.466;2022-09-11T02:14:52;15.40;99.90
25973;DHT22;13765;51.166;4.466;2022-09-11T02:19:58;15.50;99.90
25973;DHT22;13765;51.166;4.466;2022-09-11T02:22:24;15.40;99.90
25973;DHT22;13765;51.166;4.466;2022-09-11T02:24:51;15.40;99.90
25973;DHT22;13765;51.166;4.466;2022-09-11T02:27:21;15.40;99.90
25973;DHT22;13765;51.166;4.466;2022-09-11T02:29:48;15.40;99.90
25973;DHT22;13765;51.166;4.466;2022-09-11T02:32:14;15.30;99.90
25973;DHT22;13765;51.166;4.466;2022-09-11T02:34:43;15.30;99.90
25973;DHT22;13765;51.166;4.466;2022-09-11T02:59:14;15.20;99.90
25973;DHT22;13765;51.166;4.466;2022-09-11T03:01:55;15.20;99.90
25973;DHT22;13765;51.166;4.466;2022-09-11T03:04:27;15.20;99.90
25973;DHT22;13765;51.166;4.466;2022-09-11T03:06:57;15.20;99.90
25973;DHT22;13765;51.166;4.466;2022-09-11T03:09:30;15.20;99.90
25973;DHT22;13765;51.166;4.466;2022-09-11T03:11:55;15.20;99.90
25973;DHT22;13765;51.166;4.466;2022-09-11T03:14:21;15.20;99.90
25973;DHT22;13765;51.166;4.466;2022-09-11T03:16:47;15.20;99.90
25973;DHT22;13765;51.166;4.466;2022-09-11T03:19:14;15.20;99.90
25973;DHT22;13765;51.166;4.466;2022-09-11T03:21:40;15.10;99.90
25973;DHT22;13765;51.166;4.466;2022-09-11T03:24:08;15.20;99.90
25973;DHT22;13765;51.166;4.466;2022-09-11T03:26:38;15.10;99.90
25973;DHT22;13765;51.166;4.466;2022-09-11T03:29:06;15.10;99.90
25973;DHT22;13765;51.166;4.466;2022-09-11T03:31:35;15.10;99.90
25973;DHT22;13765;51.166;4.466;2022-09-11T03:34:01;15.10;99.90
25973;DHT22;13765;51.166;4.466;2022-09-11T03:36:27;15.10;99.90
25973;DHT22;13765;51.166;4.466;2022-09-11T03:38:58;15.10;99.90
25973;DHT22;13765;51.166;4.466;2022-09-11T03:41:24;15.10;99.90
25973;DHT22;13765;51.166;4.466;2022-09-11T03:43:55;15.00;99.90
25973;DHT22;13765;51.166;4.466;2022-09-11T03:46:21;15.00;99.90
25973;DHT22;13765;51.166;4.466;2022-09-11T03:48:52;15.00;99.90
25973;DHT22;13765;51.166;4.466;2022-09-11T03:51:18;15.00;99.90
25973;DHT22;13765;51.166;4.466;2022-09-11T03:53:47;15.00;99.90
25973;DHT22;13765;51.166;4.466;2022-09-11T03:56:14;15.00;99.90
25973;DHT22;13765;51.166;4.466;2022-09-11T03:58:39;14.90;99.90
25973;DHT22;13765;51.166;4.466;2022-09-11T04:01:10;14.90;99.90
25973;DHT22;13765;51.166;4.466;2022-09-11T04:03:37;14.90;99.90
25973;DHT22;13765;51.166;4.466;2022-09-11T04:06:03;14.90;99.90
25973;DHT22;13765;51.166;4.466;2022-09-11T04:08:31;14.90;99.90
25973;DHT22;13765;51.166;4.466;2022-09-11T04:11:00;14.90;99.90
25973;DHT22;13765;51.166;4.466;2022-09-11T04:13:30;14.90;99.90
25973;DHT22;13765;51.166;4.466;2022-09-11T04:16:01;14.80;99.90
25973;DHT22;13765;51.166;4.466;2022-09-11T04:18:28;14.90;99.90
25973;DHT22;13765;51.166;4.466;2022-09-11T04:20:54;14.90;99.90
25973;DHT22;13765;51.166;4.466;2022-09-11T04:23:22;14.90;99.90
25973;DHT22;13765;51.166;4.466;2022-09-11T04:25:51;14.80;99.90
25973;DHT22;13765;51.166;4.466;2022-09-11T04:28:17;14.70;99.90
25973;DHT22;13765;51.166;4.466;2022-09-11T04:30:44;14.80;99.90
25973;DHT22;13765;51.166;4.466;2022-09-11T04:33:10;14.70;99.90
25973;DHT22;13765;51.166;4.466;2022-09-11T04:35:41;14.70;99.90
25973;DHT22;13765;51.166;4.466;2022-09-11T04:38:07;14.70;99.90
25973;DHT22;13765;51.166;4.466;2022-09-11T04:40:35;14.80;99.90
25973;DHT22;13765;51.166;4.466;2022-09-11T04:43:01;14.70;99.90
25973;DHT22;13765;51.166;4.466;2022-09-11T04:45:30;14.60;99.90
25973;DHT22;13765;51.166;4.466;2022-09-11T04:47:58;14.70;99.90
25973;DHT22;13765;51.166;4.466;2022-09-11T04:50:27;14.70;99.90
25973;DHT22;13765;51.166;4.466;2022-09-11T04:52:53;14.70;99.90
25973;DHT22;13765;51.166;4.466;2022-09-11T04:55:20;14.70;99.90
25973;DHT22;13765;51.166;4.466;2022-09-11T04:57:45;14.60;99.90
25973;DHT22;13765;51.166;4.466;2022-09-11T05:00:13;14.70;99.90
25973;DHT22;13765;51.166;4.466;2022-09-11T05:02:39;14.60;99.90
25973;DHT22;13765;51.166;4.466;2022-09-11T05:05:06;14.60;99.90
25973;DHT22;13765;51.166;4.466;2022-09-11T05:07:33;14.50;99.90
25973;DHT22;13765;51.166;4.466;2022-09-11T05:10:04;14.60;99.90
25973;DHT22;13765;51.166;4.466;2022-09-11T05:12:30;14.50;99.90
25973;DHT22;13765;51.166;4.466;2022-09-11T05:15:01;14.60;99.90
25973;DHT22;13765;51.166;4.466;2022-09-11T05:17:28;14.60;99.90
25973;DHT22;13765;51.166;4.466;2022-09-11T05:19:59;14.60;99.90
25973;DHT22;13765;51.166;4.466;2022-09-11T05:22:27;14.60;99.90
25973;DHT22;13765;51.166;4.466;2022-09-11T05:24:53;14.70;99.90
25973;DHT22;13765;51.166;4.466;2022-09-11T05:27:20;14.70;99.90
25973;DHT22;13765;51.166;4.466;2022-09-11T05:29:45;14.70;99.90
25973;DHT22;13765;51.166;4.466;2022-09-11T05:32:11;14.70;99.90
25973;DHT22;13765;51.166;4.466;2022-09-11T05:34:37;14.70;99.90
25973;DHT22;13765;51.166;4.466;2022-09-11T05:37:04;14.80;99.90
25973;DHT22;13765;51.166;4.466;2022-09-11T05:39:30;14.80;99.90
25973;DHT22;13765;51.166;4.466;2022-09-11T05:41:58;14.80;99.90
25973;DHT22;13765;51.166;4.466;2022-09-11T05:44:26;14.80;99.90
25973;DHT22;13765;51.166;4.466;2022-09-11T05:46:54;14.80;99.90
25973;DHT22;13765;51.166;4.466;2022-09-11T05:49:22;14.80;99.90
25973;DHT22;13765;51.166;4.466;2022-09-11T05:51:48;14.80;99.90
25973;DHT22;13765;51.166;4.466;2022-09-11T05:54:17;14.70;99.90
25973;DHT22;13765;51.166;4.466;2022-09-11T05:56:44;14.70;99.90
25973;DHT22;13765;51.166;4.466;2022-09-11T05:59:11;14.80;99.90
25973;DHT22;13765;51.166;4.466;2022-09-11T06:01:40;14.80;99.90
25973;DHT22;13765;51.166;4.466;2022-09-11T06:04:12;14.90;99.90
25973;DHT22;13765;51.166;4.466;2022-09-11T06:06:38;14.90;99.90
25973;DHT22;13765;51.166;4.466;2022-09-11T06:09:05;15.00;99.90
25973;DHT22;13765;51.166;4.466;2022-09-11T06:11:34;15.00;99.90
25973;DHT22;13765;51.166;4.466;2022-09-11T06:14:02;15.00;99.90
25973;DHT22;13765;51.166;4.466;2022-09-11T06:16:28;15.10;99.90
25973;DHT22;13765;51.166;4.466;2022-09-11T06:18:58;15.20;99.90
25973;DHT22;13765;51.166;4.466;2022-09-11T06:21:26;15.30;99.90
25973;DHT22;13765;51.166;4.466;2022-09-11T06:23:53;15.40;99.90
25973;DHT22;13765;51.166;4.466;2022-09-11T06:26:24;15.50;99.90
25973;DHT22;13765;51.166;4.466;2022-09-11T06:28:52;15.60;99.90
25973;DHT22;13765;51.166;4.466;2022-09-11T06:31:23;15.70;99.90
25973;DHT22;13765;51.166;4.466;2022-09-11T06:33:49;15.80;99.90
25973;DHT22;13765;51.166;4.466;2022-09-11T06:36:23;15.80;99.90
25973;DHT22;13765;51.166;4.466;2022-09-11T06:38:57;15.90;99.90
25973;DHT22;13765;51.166;4.466;2022-09-11T06:41:26;16.10;99.90
25973;DHT22;13765;51.166;4.466;2022-09-11T06:43:55;16.30;99.90
25973;DHT22;13765;51.166;4.466;2022-09-11T06:46:23;16.50;99.90
25973;DHT22;13765;51.166;4.466;2022-09-11T06:48:54;16.40;99.90
25973;DHT22;13765;51.166;4.466;2022-09-11T06:51:24;16.40;99.90
25973;DHT22;13765;51.166;4.466;2022-09-11T06:53:53;16.40;99.90
25973;DHT22;13765;51.166;4.466;2022-09-11T06:56:22;16.40;99.90
25973;DHT22;13765;51.166;4.466;2022-09-11T06:58:48;16.50;99.90
25973;DHT22;13765;51.166;4.466;2022-09-11T07:01:19;16.50;99.90
25973;DHT22;13765;51.166;4.466;2022-09-11T07:03:47;16.50;99.90
25973;DHT22;13765;51.166;4.466;2022-09-11T07:06:17;16.50;99.90
25973;DHT22;13765;51.166;4.466;2022-09-11T07:08:51;16.50;99.90
25973;DHT22;13765;51.166;4.466;2022-09-11T07:11:21;16.50;99.90
25973;DHT22;13765;51.166;4.466;2022-09-11T07:13:47;16.60;99.90
25973;DHT22;13765;51.166;4.466;2022-09-11T07:16:12;16.70;99.90
25973;DHT22;13765;51.166;4.466;2022-09-11T07:18:43;16.80;99.90
25973;DHT22;13765;51.166;4.466;2022-09-11T07:21:17;16.90;99.90
25973;DHT22;13765;51.166;4.466;2022-09-11T07:23:49;17.10;99.90
25973;DHT22;13765;51.166;4.466;2022-09-11T07:26:17;17.10;99.90
25973;DHT22;13765;51.166;4.466;2022-09-11T07:28:43;17.20;99.90
25973;DHT22;13765;51.166;4.466;2022-09-11T07:31:13;17.30;99.90
25973;DHT22;13765;51.166;4.466;2022-09-11T07:33:42;17.50;99.90
25973;DHT22;13765;51.166;4.466;2022-09-11T07:36:21;17.50;99.90
25973;DHT22;13765;51.166;4.466;2022-09-11T07:38:48;17.50;99.90
25973;DHT22;13765;51.166;4.466;2022-09-11T07:41:15;17.60;99.90
25973;DHT22;13765;51.166;4.466;2022-09-11T07:43:44;17.70;99.90
25973;DHT22;13765;51.166;4.466;2022-09-11T07:46:13;17.70;99.90
25973;DHT22;13765;51.166;4.466;2022-09-11T07:48:42;17.80;99.90
25973;DHT22;13765;51.166;4.466;2022-09-11T07:51:10;18.00;99.90
25973;DHT22;13765;51.166;4.466;2022-09-11T07:53:39;18.00;99.90
25973;DHT22;13765;51.166;4.466;2022-09-11T07:56:07;18.00;99.90
25973;DHT22;13765;51.166;4.466;2022-09-11T07:58:38;18.10;99.90
25973;DHT22;13765;51.166;4.466;2022-09-11T08:01:13;18.30;99.90
25973;DHT22;13765;51.166;4.466;2022-09-11T08:03:40;18.50;99.90
25973;DHT22;13765;51.166;4.466;2022-09-11T08:06:12;18.50;99.90
25973;DHT22;13765;51.166;4.466;2022-09-11T08:08:41;18.60;99.90
25973;DHT22;13765;51.166;4.466;2022-09-11T08:11:13;18.70;99.90
25973;DHT22;13765;51.166;4.466;2022-09-11T08:13:39;18.60;99.90
25973;DHT22;13765;51.166;4.466;2022-09-11T08:16:06;18.50;99.90
25973;DHT22;13765;51.166;4.466;2022-09-11T08:18:32;18.60;99.90
25973;DHT22;13765;51.166;4.466;2022-09-11T08:21:08;18.80;99.90
25973;DHT22;13765;51.166;4.466;2022-09-11T08:23:34;19.00;99.90
25973;DHT22;13765;51.166;4.466;2022-09-11T08:28:41;19.10;99.90
25973;DHT22;13765;51.166;4.466;2022-09-11T08:31:12;19.10;99.90
25973;DHT22;13765;51.166;4.466;2022-09-11T08:33:38;19.10;99.90
25973;DHT22;13765;51.166;4.466;2022-09-11T08:36:07;19.20;99.90
25973;DHT22;13765;51.166;4.466;2022-09-11T08:38:35;19.40;99.90
25973;DHT22;13765;51.166;4.466;2022-09-11T08:46:31;19.60;99.90
25973;DHT22;13765;51.166;4.466;2022-09-11T08:51:33;19.40;99.90
25973;DHT22;13765;51.166;4.466;2022-09-11T08:54:00;19.40;99.90
25973;DHT22;13765;51.166;4.466;2022-09-11T08:56:29;19.40;99.90
25973;DHT22;13765;51.166;4.466;2022-09-11T08:59:28;19.60;99.90
25973;DHT22;13765;51.166;4.466;2022-09-11T09:02:28;19.80;99.90
25973;DHT22;13765;51.166;4.466;2022-09-11T09:08:12;20.20;99.90
25973;DHT22;13765;51.166;4.466;2022-09-11T09:18:45;20.60;99.90
25973;DHT22;13765;51.166;4.466;2022-09-11T09:21:36;20.70;99.90
25973;DHT22;13765;51.166;4.466;2022-09-11T09:24:12;20.70;99.90
25973;DHT22;13765;51.166;4.466;2022-09-11T09:26:51;20.40;99.90
25973;DHT22;13765;51.166;4.466;2022-09-11T09:29:23;20.60;99.90
25973;DHT22;13765;51.166;4.466;2022-09-11T09:31:54;20.80;99.90
25973;DHT22;13765;51.166;4.466;2022-09-11T09:34:23;20.70;99.90
25973;DHT22;13765;51.166;4.466;2022-09-11T09:36:59;20.70;99.90
25973;DHT22;13765;51.166;4.466;2022-09-11T09:39:29;20.80;99.90
25973;DHT22;13765;51.166;4.466;2022-09-11T09:46:59;21.20;99.90
25973;DHT22;13765;51.166;4.466;2022-09-11T09:49:32;21.20;99.90
25973;DHT22;13765;51.166;4.466;2022-09-11T09:52:01;21.10;99.90
25973;DHT22;13765;51.166;4.466;2022-09-11T09:54:34;21.10;99.90
25973;DHT22;13765;51.166;4.466;2022-09-11T09:57:03;21.00;99.90
25973;DHT22;13765;51.166;4.466;2022-09-11T10:02:43;21.40;99.90
25973;DHT22;13765;51.166;4.466;2022-09-11T10:05:26;21.50;99.90
25973;DHT22;13765;51.166;4.466;2022-09-11T10:07:56;21.90;99.90
25973;DHT22;13765;51.166;4.466;2022-09-11T10:10:34;22.00;99.90
25973;DHT22;13765;51.166;4.466;2022-09-11T10:15:37;22.40;99.90
25973;DHT22;13765;51.166;4.466;2022-09-11T10:18:25;22.40;99.90
25973;DHT22;13765;51.166;4.466;2022-09-11T10:29:16;22.20;99.90
25973;DHT22;13765;51.166;4.466;2022-09-11T10:31:54;22.30;99.90
25973;DHT22;13765;51.166;4.466;2022-09-11T10:34:23;22.60;99.90
25973;DHT22;13765;51.166;4.466;2022-09-11T10:36:58;22.70;99.90
25973;DHT22;13765;51.166;4.466;2022-09-11T10:39:27;22.80;99.90
25973;DHT22;13765;51.166;4.466;2022-09-11T10:41:56;23.00;99.90
25973;DHT22;13765;51.166;4.466;2022-09-11T10:44:25;23.30;99.90
25973;DHT22;13765;51.166;4.466;2022-09-11T10:47:17;23.50;99.90
25973;DHT22;13765;51.166;4.466;2022-09-11T10:49:46;23.70;99.90
25973;DHT22;13765;51.166;4.466;2022-09-11T10:52:17;24.10;99.90
25973;DHT22;13765;51.166;4.466;2022-09-11T10:57:58;24.00;99.90
25973;DHT22;13765;51.166;4.466;2022-09-11T11:00:27;24.00;99.90
25973;DHT22;13765;51.166;4.466;2022-09-11T11:25:06;24.30;99.90
25973;DHT22;13765;51.166;4.466;2022-09-11T11:30:40;24.20;99.90
25973;DHT22;13765;51.166;4.466;2022-09-11T11:35:51;24.70;99.90
25973;DHT22;13765;51.166;4.466;2022-09-11T11:41:03;25.00;99.90
25973;DHT22;13765;51.166;4.466;2022-09-11T11:43:33;25.30;99.90
25973;DHT22;13765;51.166;4.466;2022-09-11T11:51:29;25.40;99.90
25973;DHT22;13765;51.166;4.466;2022-09-11T11:54:15;25.60;99.90
25973;DHT22;13765;51.166;4.466;2022-09-11T11:56:52;25.80;99.90
25973;DHT22;13765;51.166;4.466;2022-09-11T12:07:31;25.60;99.90
25973;DHT22;13765;51.166;4.466;2022-09-11T12:10:02;25.70;99.90
25973;DHT22;13765;51.166;4.466;2022-09-11T12:12:43;25.80;99.90
25973;DHT22;13765;51.166;4.466;2022-09-11T12:15:23;25.80;99.90
25973;DHT22;13765;51.166;4.466;2022-09-11T12:18:22;25.90;99.90
25973;DHT22;13765;51.166;4.466;2022-09-11T12:20:49;26.30;99.90
25973;DHT22;13765;51.166;4.466;2022-09-11T12:23:34;26.20;99.90
25973;DHT22;13765;51.166;4.466;2022-09-11T12:28:33;26.40;99.90
25973;DHT22;13765;51.166;4.466;2022-09-11T12:36:19;26.50;99.90
25973;DHT22;13765;51.166;4.466;2022-09-11T12:38:58;26.70;99.90
25973;DHT22;13765;51.166;4.466;2022-09-11T12:43:54;26.60;99.90
25973;DHT22;13765;51.166;4.466;2022-09-11T12:48:48;26.50;99.90
25973;DHT22;13765;51.166;4.466;2022-09-11T12:51:35;26.40;99.90
25973;DHT22;13765;51.166;4.466;2022-09-11T12:54:25;26.40;99.90
25973;DHT22;13765;51.166;4.466;2022-09-11T12:56:59;26.60;99.90
25973;DHT22;13765;51.166;4.466;2022-09-11T12:59:35;26.70;99.90
25973;DHT22;13765;51.166;4.466;2022-09-11T13:02:24;26.60;99.90
25973;DHT22;13765;51.166;4.466;2022-09-11T13:04:52;26.60;99.90
25973;DHT22;13765;51.166;4.466;2022-09-11T13:07:45;26.60;99.90
25973;DHT22;13765;51.166;4.466;2022-09-11T13:10:29;26.50;99.90
25973;DHT22;13765;51.166;4.466;2022-09-11T13:12:58;26.70;99.90
25973;DHT22;13765;51.166;4.466;2022-09-11T13:18:00;26.80;99.90
25973;DHT22;13765;51.166;4.466;2022-09-11T13:20:26;26.90;99.90
25973;DHT22;13765;51.166;4.466;2022-09-11T13:23:11;26.90;99.90
25973;DHT22;13765;51.166;4.466;2022-09-11T13:25:40;26.80;99.90
25973;DHT22;13765;51.166;4.466;2022-09-11T13:28:06;26.40;99.90
25973;DHT22;13765;51.166;4.466;2022-09-11T13:31:01;26.10;99.90
25973;DHT22;13765;51.166;4.466;2022-09-11T13:33:30;26.10;99.90
25973;DHT22;13765;51.166;4.466;2022-09-11T13:35:58;26.20;99.90
25973;DHT22;13765;51.166;4.466;2022-09-11T13:38:30;26.30;99.90
25973;DHT22;13765;51.166;4.466;2022-09-11T13:41:04;26.40;99.90
25973;DHT22;13765;51.166;4.466;2022-09-11T13:43:40;26.40;99.90
25973;DHT22;13765;51.166;4.466;2022-09-11T13:48:40;26.30;99.90
25973;DHT22;13765;51.166;4.466;2022-09-11T13:51:14;26.30;99.90
25973;DHT22;13765;51.166;4.466;2022-09-11T13:53:42;26.50;99.90
25973;DHT22;13765;51.166;4.466;2022-09-11T14:04:52;26.40;99.90
25973;DHT22;13765;51.166;4.466;2022-09-11T14:07:25;26.30;99.90
25973;DHT22;13765;51.166;4.466;2022-09-11T14:10:02;26.30;99.90
25973;DHT22;13765;51.166;4.466;2022-09-11T14:12:31;26.10;99.90
25973;DHT22;13765;51.166;4.466;2022-09-11T14:15:08;26.30;99.90
25973;DHT22;13765;51.166;4.466;2022-09-11T14:17:40;26.30;99.90
25973;DHT22;13765;51.166;4.466;2022-09-11T14:20:17;26.20;99.90
25973;DHT22;13765;51.166;4.466;2022-09-11T14:22:52;26.10;99.90
25973;DHT22;13765;51.166;4.466;2022-09-11T14:25:20;25.80;99.90
25973;DHT22;13765;51.166;4.466;2022-09-11T14:27:50;25.90;99.90
25973;DHT22;13765;51.166;4.466;2022-09-11T14:30:25;26.00;99.90
25973;DHT22;13765;51.166;4.466;2022-09-11T14:35:41;26.20;99.90
25973;DHT22;13765;51.166;4.466;2022-09-11T14:38:11;26.00;99.90
25973;DHT22;13765;51.166;4.466;2022-09-11T14:40:45;25.80;99.90
25973;DHT22;13765;51.166;4.466;2022-09-11T14:43:11;25.90;99.90
25973;DHT22;13765;51.166;4.466;2022-09-11T14:45:38;25.70;99.90
25973;DHT22;13765;51.166;4.466;2022-09-11T14:48:13;25.70;99.90
25973;DHT22;13765;51.166;4.466;2022-09-11T14:50:43;25.80;99.90
25973;DHT22;13765;51.166;4.466;2022-09-11T14:53:20;25.60;99.90
25973;DHT22;13765;51.166;4.466;2022-09-11T14:55:48;25.90;99.90
25973;DHT22;13765;51.166;4.466;2022-09-11T14:58:15;25.90;99.90
25973;DHT22;13765;51.166;4.466;2022-09-11T15:00:41;26.00;99.90
25973;DHT22;13765;51.166;4.466;2022-09-11T15:03:07;25.90;99.90
25973;DHT22;13765;51.166;4.466;2022-09-11T15:05:36;25.90;99.90
25973;DHT22;13765;51.166;4.466;2022-09-11T15:08:06;25.90;99.90
25973;DHT22;13765;51.166;4.466;2022-09-11T15:10:32;25.70;99.90
25973;DHT22;13765;51.166;4.466;2022-09-11T15:12:58;25.70;99.90
25973;DHT22;13765;51.166;4.466;2022-09-11T15:15:24;25.60;99.90
25973;DHT22;13765;51.166;4.466;2022-09-11T15:17:51;25.60;99.90
25973;DHT22;13765;51.166;4.466;2022-09-11T15:20:22;25.60;99.90
25973;DHT22;13765;51.166;4.466;2022-09-11T15:22:50;25.60;99.90
25973;DHT22;13765;51.166;4.466;2022-09-11T15:25:15;25.70;99.90
25973;DHT22;13765;51.166;4.466;2022-09-11T15:27:43;25.70;99.90
25973;DHT22;13765;51.166;4.466;2022-09-11T15:30:10;25.60;99.90
25973;DHT22;13765;51.166;4.466;2022-09-11T15:32:36;25.60;99.90
25973;DHT22;13765;51.166;4.466;2022-09-11T15:35:02;25.50;99.90
25973;DHT22;13765;51.166;4.466;2022-09-11T15:37:32;25.60;99.90
25973;DHT22;13765;51.166;4.466;2022-09-11T15:40:02;25.60;99.90
25973;DHT22;13765;51.166;4.466;2022-09-11T15:42:29;25.70;99.90
25973;DHT22;13765;51.166;4.466;2022-09-11T15:44:57;25.50;99.90
25973;DHT22;13765;51.166;4.466;2022-09-11T15:47:25;25.30;99.90
25973;DHT22;13765;51.166;4.466;2022-09-11T15:49:53;25.40;99.90
25973;DHT22;13765;51.166;4.466;2022-09-11T15:52:19;25.40;99.90
25973;DHT22;13765;51.166;4.466;2022-09-11T15:54:48;25.40;99.90
25973;DHT22;13765;51.166;4.466;2022-09-11T15:57:18;25.20;99.90
25973;DHT22;13765;51.166;4.466;2022-09-11T15:59:46;25.20;99.90
25973;DHT22;13765;51.166;4.466;2022-09-11T16:02:12;25.20;99.90
25973;DHT22;13765;51.166;4.466;2022-09-11T16:04:38;25.10;99.90
25973;DHT22;13765;51.166;4.466;2022-09-11T16:07:03;25.20;99.90
25973;DHT22;13765;51.166;4.466;2022-09-11T16:09:32;25.10;99.90
25973;DHT22;13765;51.166;4.466;2022-09-11T16:11:59;25.00;99.90
25973;DHT22;13765;51.166;4.466;2022-09-11T16:14:33;25.00;99.90
25973;DHT22;13765;51.166;4.466;2022-09-11T16:17:00;24.90;99.90
25973;DHT22;13765;51.166;4.466;2022-09-11T16:19:30;24.90;99.90
25973;DHT22;13765;51.166;4.466;2022-09-11T16:21:58;24.90;99.90
25973;DHT22;13765;51.166;4.466;2022-09-11T16:24:31;24.80;99.90
25973;DHT22;13765;51.166;4.466;2022-09-11T16:27:04;24.80;99.90
25973;DHT22;13765;51.166;4.466;2022-09-11T16:29:34;24.80;99.90
25973;DHT22;13765;51.166;4.466;2022-09-11T16:32:02;24.70;99.90
25973;DHT22;13765;51.166;4.466;2022-09-11T16:34:31;24.50;99.90
25973;DHT22;13765;51.166;4.466;2022-09-11T16:37:00;24.30;99.90
25973;DHT22;13765;51.166;4.466;2022-09-11T16:39:29;24.20;99.90
25973;DHT22;13765;51.166;4.466;2022-09-11T16:41:55;24.10;99.90
25973;DHT22;13765;51.166;4.466;2022-09-11T16:44:21;24.00;99.90
25973;DHT22;13765;51.166;4.466;2022-09-11T16:46:49;23.90;99.90
25973;DHT22;13765;51.166;4.466;2022-09-11T16:49:17;23.90;99.90
25973;DHT22;13765;51.166;4.466;2022-09-11T16:51:46;23.90;99.90
25973;DHT22;13765;51.166;4.466;2022-09-11T16:54:17;23.70;99.90
25973;DHT22;13765;51.166;4.466;2022-09-11T16:56:46;23.60;99.90
25973;DHT22;13765;51.166;4.466;2022-09-11T16:59:12;23.50;99.90
25973;DHT22;13765;51.166;4.466;2022-09-11T17:01:39;23.40;99.90
25973;DHT22;13765;51.166;4.466;2022-09-11T17:04:05;23.40;99.90
25973;DHT22;13765;51.166;4.466;2022-09-11T17:06:33;23.20;99.90
25973;DHT22;13765;51.166;4.466;2022-09-11T17:09:00;23.20;99.90
25973;DHT22;13765;51.166;4.466;2022-09-11T17:11:28;23.10;99.90
25973;DHT22;13765;51.166;4.466;2022-09-11T17:13:55;23.10;99.90
25973;DHT22;13765;51.166;4.466;2022-09-11T17:16:25;22.90;99.90
25973;DHT22;13765;51.166;4.466;2022-09-11T17:18:53;22.80;99.90
25973;DHT22;13765;51.166;4.466;2022-09-11T17:21:22;22.80;99.90
25973;DHT22;13765;51.166;4.466;2022-09-11T17:23:52;22.70;99.90
25973;DHT22;13765;51.166;4.466;2022-09-11T17:26:21;22.70;99.90
25973;DHT22;13765;51.166;4.466;2022-09-11T17:28:48;22.60;99.90
25973;DHT22;13765;51.166;4.466;2022-09-11T17:31:18;22.50;99.90
25973;DHT22;13765;51.166;4.466;2022-09-11T17:33:44;22.40;99.90
25973;DHT22;13765;51.166;4.466;2022-09-11T17:36:15;22.20;99.90
25973;DHT22;13765;51.166;4.466;2022-09-11T17:38:43;22.10;99.90
25973;DHT22;13765;51.166;4.466;2022-09-11T17:41:13;22.00;99.90
25973;DHT22;13765;51.166;4.466;2022-09-11T17:43:39;21.90;99.90
25973;DHT22;13765;51.166;4.466;2022-09-11T17:46:14;21.80;99.90
25973;DHT22;13765;51.166;4.466;2022-09-11T17:48:43;21.60;99.90
25973;DHT22;13765;51.166;4.466;2022-09-11T17:51:23;21.50;99.90
25973;DHT22;13765;51.166;4.466;2022-09-11T17:53:56;21.40;99.90
25973;DHT22;13765;51.166;4.466;2022-09-11T17:56:28;21.30;99.90
25973;DHT22;13765;51.166;4.466;2022-09-11T17:58:59;21.10;99.90
25973;DHT22;13765;51.166;4.466;2022-09-11T18:01:27;21.00;99.90
25973;DHT22;13765;51.166;4.466;2022-09-11T18:03:57;20.90;99.90
25973;DHT22;13765;51.166;4.466;2022-09-11T18:06:28;20.80;99.90
25973;DHT22;13765;51.166;4.466;2022-09-11T18:08:59;20.70;99.90
25973;DHT22;13765;51.166;4.466;2022-09-11T18:11:26;20.60;99.90
25973;DHT22;13765;51.166;4.466;2022-09-11T18:13:52;20.50;99.90
25973;DHT22;13765;51.166;4.466;2022-09-11T18:16:19;20.40;99.90
25973;DHT22;13765;51.166;4.466;2022-09-11T18:18:46;20.40;99.90
25973;DHT22;13765;51.166;4.466;2022-09-11T18:21:14;20.20;99.90
25973;DHT22;13765;51.166;4.466;2022-09-11T18:23:43;20.10;99.90